Time;durP1;ratioP1;P1;durP2;ratioP2;P2;SDS_P1;SDS_P2;PMS_P1;PMS_P2;Temp;Humidity;BMP_temperature;BMP_pressure;BME280_temperature;BME280_humidity;BME280_pressure;Samples;Min_cycle;Max_cycle;Signal;HPM_P1;HPM_P2
2023/07/08 00:24:03;1718672.00;5.73;3061.76;0.00;0.00;0.62;;;;;25.70;1.00;;;;;;2517637;40;3488;31
2023/07/08 01:02:25;1986237.00;6.62;3596.10;0.00;0.00;0.62;;;;;25.40;1.00;;;;;;2283204;61;1039;-89
2023/07/08 02:00:48;1549288.00;5.16;2736.21;68864.00;0.23;119.80;;;;;24.60;1.00;;;;;;2282810;61;1019;-88
2023/07/08 02:23:51;2177023.00;7.26;3994.37;33351.00;0.11;58.38;;;;;24.00;1.00;;;;;;2286136;56;3572;-94
2023/07/08 02:56:44;1764400.00;5.88;3151.25;48215.00;0.16;84.10;;;;;23.90;1.00;;;;;;2277976;61;1100;-88
2023/07/08 03:04:22;1168363.00;3.89;2033.12;56134.00;0.19;97.79;;;;;23.70;1.00;;;;;;2266112;61;1349;-89
2023/07/08 03:24:34;1551755.00;5.17;2740.89;92567.00;0.31;160.74;;;;;24.10;1.00;;;;;;2266090;61;992;-90
2023/07/08 03:57:31;2195993.00;7.32;4034.84;61663.00;0.21;107.35;;;;;24.10;1.00;;;;;;2280163;56;3592;-88
2023/07/08 03:59:58;862089.00;2.87;1489.63;153002.00;0.51;264.98;;;;;24.10;1.00;;;;;;2287047;56;3749;-86
2023/07/08 04:27:41;2028747.00;6.76;3683.52;144498.00;0.48;250.32;;;;;25.10;1.00;;;;;;2317186;41;3609;-88
2023/07/08 04:45:17;2021623.00;6.74;3668.82;27016.00;0.09;47.42;;;;;25.10;1.00;;;;;;2291037;56;3638;-87
2023/07/08 04:50:16;1389207.00;4.63;2436.32;39189.00;0.13;68.49;;;;;25.20;1.00;;;;;;2287654;39;3511;-88
2023/07/08 04:52:43;353916.00;1.18;610.59;0.00;0.00;0.62;;;;;25.40;1.00;;;;;;2379052;40;3636;-89
2023/07/08 04:55:13;732455.00;2.44;1263.57;0.00;0.00;0.62;;;;;25.50;1.00;;;;;;2279450;56;3791;-87
2023/07/08 04:57:40;355593.00;1.19;613.47;0.00;0.00;0.62;;;;;25.80;1.00;;;;;;2363396;41;3700;-88
2023/07/08 05:02:38;2026403.00;6.75;3678.68;51686.00;0.17;90.10;;;;;26.20;1.00;;;;;;1990266;55;3799;-88
2023/07/08 05:05:06;402513.00;1.34;694.13;18059.00;0.06;31.91;;;;;26.20;1.00;;;;;;2328883;40;3629;-87
2023/07/08 05:20:21;534554.00;1.78;921.34;0.00;0.00;0.62;;;;;25.90;1.00;;;;;;1792750;40;3246;-86
2023/07/08 05:32:58;1950929.00;6.50;3524.05;0.00;0.00;0.62;;;;;26.10;1.00;;;;;;2293668;56;3553;-89
2023/07/08 05:38:02;352637.00;1.18;608.39;0.00;0.00;0.62;;;;;26.40;1.00;;;;;;1866600;41;3148;-88
2023/07/08 05:45:41;1715769.00;5.72;3056.10;0.00;0.00;0.62;;;;;26.00;1.00;;;;;;2322729;40;3650;-88
2023/07/08 05:50:46;1751226.00;5.84;3125.40;49382.00;0.16;86.12;;;;;25.90;1.00;;;;;;2289886;60;1881;-87
2023/07/08 05:53:15;252714.00;0.84;436.62;0.00;0.00;0.62;;;;;25.80;1.00;;;;;;2289097;60;1448;-87
2023/07/08 05:55:44;475280.00;1.58;819.28;142322.00;0.47;246.57;;;;;25.90;1.00;;;;;;2289020;60;1592;-88
2023/07/08 06:08:23;1879008.00;6.26;3378.78;96682.00;0.32;167.84;;;;;25.90;1.00;;;;;;2280177;61;1365;-88
2023/07/08 06:15:52;1816523.00;6.06;3254.14;36213.00;0.12;63.34;;;;;26.20;1.00;;;;;;2289915;60;1336;-89
2023/07/08 06:18:20;701867.00;2.34;1210.48;20715.00;0.07;36.51;;;;;26.30;1.00;;;;;;2288912;60;1302;-91
2023/07/08 06:20:53;728231.00;2.43;1256.23;60912.00;0.20;106.05;;;;;26.40;1.00;;;;;;2288977;60;1228;-90
2023/07/08 06:25:57;520225.00;1.73;896.65;0.00;0.00;0.62;;;;;26.40;1.00;;;;;;2277699;56;1850;-87
2023/07/08 06:28:24;583685.00;1.95;1006.06;18032.00;0.06;31.86;;;;;26.40;1.00;;;;;;2272585;61;1737;-89
2023/07/08 06:30:52;600428.00;2.00;1034.96;33843.00;0.11;59.23;;;;;26.20;1.00;;;;;;2272650;61;1994;-89
2023/07/08 06:33:19;952796.00;3.18;1649.04;89828.00;0.30;156.01;;;;;26.40;1.00;;;;;;2272606;61;930;-88
2023/07/08 06:35:46;844945.00;2.82;1459.62;75980.00;0.25;132.09;;;;;26.50;1.00;;;;;;2272604;61;934;-89
2023/07/08 06:38:14;625183.00;2.08;1077.72;11989.00;0.04;21.39;;;;;26.20;1.00;;;;;;2272561;61;1548;-88
2023/07/08 06:40:41;457377.00;1.52;788.47;41798.00;0.14;73.00;;;;;26.10;1.00;;;;;;2272610;61;774;-89
2023/07/08 06:43:09;357526.00;1.19;616.80;6502.00;0.02;11.89;;;;;26.00;1.00;;;;;;2272551;61;2290;-90
2023/07/08 06:45:37;329123.00;1.10;567.98;20617.00;0.07;36.34;;;;;26.00;1.00;;;;;;2272474;61;1630;-86
2023/07/08 06:48:04;208303.00;0.69;360.21;0.00;0.00;0.62;;;;;25.90;1.00;;;;;;2271804;61;1593;-89
2023/07/08 06:50:31;453207.00;1.51;781.30;19355.00;0.06;34.15;;;;;25.90;1.00;;;;;;2272412;61;1914;-89
2023/07/08 06:52:58;861133.00;2.87;1487.96;56533.00;0.19;98.48;;;;;25.80;1.00;;;;;;2272458;61;1549;-87
2023/07/08 06:55:26;441082.00;1.47;760.44;58239.00;0.19;101.43;;;;;25.70;1.00;;;;;;2272440;61;1616;-87
2023/07/08 07:33:37;349002.00;1.16;602.15;0.00;0.00;0.62;;;;;29.00;1.00;;;;;;1969580;40;3324;-88
2023/07/08 07:38:40;2138430.00;7.13;3912.55;151684.00;0.51;262.71;;;;;29.40;1.00;;;;;;824013;56;3611;-89
2023/07/08 07:43:43;483150.00;1.61;832.82;0.00;0.00;0.62;;;;;29.50;1.00;;;;;;2318425;40;2881;-89
2023/07/08 07:46:10;777745.00;2.59;1342.34;19837.00;0.07;34.99;;;;;29.60;1.00;;;;;;2279641;40;3599;-88
2023/07/08 07:48:40;761285.00;2.54;1313.69;217519.00;0.73;376.07;;;;;30.00;1.00;;;;;;2406857;40;3736;-89
2023/07/08 08:03:52;2199629.00;7.33;4042.61;159719.00;0.53;276.56;;;;;29.40;1.00;;;;;;2305790;55;3699;-90
2023/07/08 08:08:52;1579983.00;5.27;2794.54;70055.00;0.23;121.86;;;;;29.60;1.00;;;;;;2354859;40;3445;-88
2023/07/08 08:11:19;815843.00;2.72;1408.77;190099.00;0.63;328.88;;;;;29.80;1.00;;;;;;2300312;55;3729;-89
2023/07/08 08:18:57;126216008.00;420.72;81462824.00;83217.00;0.28;144.59;;;;;30.20;1.00;;;;;;1278016;40;3148;-88
2023/07/08 08:29:11;87721.00;0.29;152.37;0.00;0.00;0.62;;;;;30.10;1.00;;;;;;2470351;40;2179;-90
2023/07/08 08:31:38;202698.00;0.68;350.57;43754.00;0.15;76.38;;;;;30.20;1.00;;;;;;2425435;40;3708;-87
2023/07/08 08:34:09;350076.00;1.17;603.99;0.00;0.00;0.62;;;;;30.00;1.00;;;;;;2456642;40;3731;-89
2023/07/08 08:41:48;1805075.00;6.02;3231.46;47218.00;0.16;82.37;;;;;29.80;1.00;;;;;;2301322;40;3516;-88
2023/07/08 08:47:05;399270.00;1.33;688.55;0.00;0.00;0.62;;;;;30.00;1.00;;;;;;2275745;56;1686;-89
2023/07/08 09:02:37;1685575.00;5.62;2997.43;157446.00;0.52;272.64;;;;;30.10;1.00;;;;;;2305538;39;3492;-87
2023/07/08 09:12:55;483788.00;1.61;833.92;0.00;0.00;0.62;;;;;30.20;1.00;;;;;;1531697;56;2748;-87
2023/07/08 09:30:49;1718006.00;5.73;3060.46;0.00;0.00;0.62;;;;;30.40;1.00;;;;;;2289229;55;3631;-87
2023/07/08 09:33:27;424950.00;1.42;732.70;0.00;0.00;0.62;;;;;30.50;1.00;;;;;;2322565;55;3737;-88
2023/07/08 09:43:41;1397991.00;4.66;2452.60;27854.00;0.09;48.87;;;;;30.30;1.00;;;;;;2282617;61;1308;-89
2023/07/08 09:53:50;1054067.00;3.51;1828.47;27216.00;0.09;47.76;;;;;30.60;1.00;;;;;;2282261;61;1729;-89
2023/07/08 09:58:49;1250044.00;4.17;2180.97;3781.00;0.01;7.17;;;;;30.60;1.00;;;;;;2279272;55;3712;-88
2023/07/08 10:06:25;2183011.00;7.28;4007.13;70844.00;0.24;123.22;;;;;31.50;1.00;;;;;;2197871;55;3627;-88
2023/07/08 10:08:56;348528.00;1.16;601.33;0.00;0.00;0.62;;;;;32.00;1.00;;;;;;2288254;60;1657;-88
2023/07/08 10:11:29;225738.00;0.75;390.22;0.00;0.00;0.62;;;;;32.50;1.00;;;;;;2288300;60;2022;-87
2023/07/08 10:14:04;358235.00;1.19;618.02;26002.00;0.09;45.66;;;;;32.80;1.00;;;;;;2308825;39;3573;-89
2023/07/08 10:19:13;867326.00;2.89;1498.80;0.00;0.00;0.62;;;;;32.20;1.00;;;;;;2293056;55;3632;-87
2023/07/08 10:21:52;188209.00;0.63;325.62;0.00;0.00;0.62;;;;;32.40;1.00;;;;;;2272051;61;1730;-88
2023/07/08 10:29:26;2357644.00;7.86;4386.42;57380.00;0.19;99.95;;;;;32.20;1.00;;;;;;1566292;40;3573;-88
2023/07/08 10:32:06;126029152.00;420.10;81101192.00;126431.00;0.42;219.17;;;;;32.30;1.00;;;;;;2271901;61;2002;-88
2023/07/08 10:37:09;2061254.00;6.87;3750.87;87385.00;0.29;151.79;;;;;31.70;1.00;;;;;;2273734;61;1388;-88
2023/07/08 10:40:05;1065421.00;3.55;1848.69;84173.00;0.28;146.25;;;;;31.90;1.00;;;;;;2286167;56;3711;-87
2023/07/08 10:42:51;834906.00;2.78;1442.07;81443.00;0.27;141.53;;;;;31.60;1.00;;;;;;2336497;40;3678;-88
2023/07/08 10:45:31;1006978.00;3.36;1744.83;71667.00;0.24;124.64;;;;;31.50;1.00;;;;;;2349571;40;3700;-89
2023/07/08 10:48:16;708001.00;2.36;1221.12;20988.00;0.07;36.98;;;;;31.90;1.00;;;;;;2272681;61;1856;-90
2023/07/08 10:50:57;448544.00;1.50;773.28;0.00;0.00;0.62;;;;;31.90;1.00;;;;;;2272656;61;2007;-87
2023/07/08 10:53:44;1213957.00;4.05;2115.47;217051.00;0.72;375.27;;;;;32.20;1.00;;;;;;2281028;55;3772;-87
2023/07/08 10:56:17;700350.00;2.33;1207.85;50455.00;0.17;87.97;;;;;32.40;1.00;;;;;;2280761;61;1654;-91
2023/07/08 10:59:04;384394.00;1.28;662.98;63514.00;0.21;110.55;;;;;32.30;1.00;;;;;;2277751;61;1310;-90
2023/07/08 11:04:39;816625.00;2.72;1410.13;91900.00;0.31;159.59;;;;;32.70;1.00;;;;;;1965848;59;1968;-87
2023/07/08 11:07:16;150659104.00;502.20;138623280.00;110870.00;0.37;192.33;;;;;32.50;1.00;;;;;;2313886;41;3601;-89
2023/07/08 11:09:50;716536.00;2.39;1235.93;104099.00;0.35;180.65;;;;;32.70;1.00;;;;;;2271981;61;1029;-87
2023/07/08 11:12:29;124086496.00;413.62;77404904.00;65797.00;0.22;114.50;;;;;32.90;1.00;;;;;;2271357;61;2239;-88
2023/07/08 11:15:03;963240.00;3.21;1667.47;104658.00;0.35;181.61;;;;;33.00;1.00;;;;;;2271283;61;1890;-87
2023/07/08 11:17:37;1333222.00;4.44;2333.04;82281.00;0.27;142.98;;;;;32.90;1.00;;;;;;2299215;56;3841;-87
2023/07/08 11:20:20;1174740.00;3.92;2044.62;148178.00;0.49;256.67;;;;;33.20;1.00;;;;;;2294452;40;3586;-87
2023/07/08 11:22:53;1463169.00;4.88;2574.01;147315.00;0.49;255.18;;;;;32.90;1.00;;;;;;2405330;40;3647;-89
2023/07/08 11:27:58;1152277.00;3.84;2004.17;57442.00;0.19;100.05;;;;;32.40;1.00;;;;;;2285770;61;1343;-89
2023/07/08 11:30:31;539694.00;1.80;930.20;63246.00;0.21;110.09;;;;;32.30;1.00;;;;;;2284084;60;1998;-87
2023/07/08 11:33:04;723225.00;2.41;1247.54;107150.00;0.36;185.91;;;;;32.50;1.00;;;;;;2283984;60;1619;-87
2023/07/08 11:35:42;1137361.00;3.79;1977.37;146416.00;0.49;253.63;;;;;32.60;1.00;;;;;;2295388;39;3590;-87
2023/07/08 11:38:15;1213580.00;4.05;2114.79;70543.00;0.24;122.70;;;;;32.60;1.00;;;;;;2275840;61;1415;-89
2023/07/08 11:40:54;1397266.00;4.66;2451.25;68399.00;0.23;118.99;;;;;32.90;1.00;;;;;;2275645;61;972;-89
2023/07/08 11:43:26;1106447.00;3.69;1921.96;108062.00;0.36;187.49;;;;;33.20;1.00;;;;;;2272371;61;1339;-87
2023/07/08 11:45:57;1658028.00;5.53;2944.16;115207.00;0.38;199.81;;;;;33.30;1.00;;;;;;2275893;61;1818;-89
2023/07/08 11:51:06;2308460.00;7.69;4278.13;180648.00;0.60;312.61;;;;;33.40;1.00;;;;;;2344192;40;3495;-88
2023/07/08 11:53:37;1766784.00;5.89;3155.94;277101.00;0.92;478.55;;;;;33.30;1.00;;;;;;2298933;56;3701;-88
2023/07/08 11:58:53;1570706.00;5.24;2776.89;58645.00;0.20;102.13;;;;;33.80;1.00;;;;;;2281484;61;1379;-88
2023/07/08 12:04:02;1427878.00;4.76;2508.13;83663.00;0.28;145.36;;;;;33.50;1.00;;;;;;2083256;55;3667;-87
2023/07/08 12:06:50;862825.00;2.88;1490.92;108189.00;0.36;187.70;;;;;33.10;1.00;;;;;;2463237;40;3622;-86
2023/07/08 12:12:01;371479.00;1.24;640.78;9873.00;0.03;17.73;;;;;33.30;1.00;;;;;;1120463;39;3311;-88
2023/07/08 12:14:33;1477866.00;4.93;2601.54;103858.00;0.35;180.23;;;;;33.20;1.00;;;;;;2309699;39;3870;-87
2023/07/08 12:19:41;1158614.00;3.86;2015.57;124581.00;0.42;215.98;;;;;33.30;1.00;;;;;;2337305;56;2145;-89
2023/07/08 12:22:12;1166126.00;3.89;2029.09;75200.00;0.25;130.75;;;;;33.70;1.00;;;;;;2275294;61;1787;-87
2023/07/08 12:24:41;1008212.00;3.36;1747.02;13268.00;0.04;23.61;;;;;33.70;1.00;;;;;;2275293;61;1474;-86
2023/07/08 12:27:11;972425.00;3.24;1683.69;32584.00;0.11;57.06;;;;;33.80;1.00;;;;;;2308581;39;3586;-87
2023/07/08 12:32:22;2442818.00;8.14;4576.77;79396.00;0.26;137.99;;;;;33.80;1.00;;;;;;1613381;40;3533;-90
2023/07/08 12:34:53;478391.00;1.59;824.63;10265.00;0.03;18.41;;;;;33.90;1.00;;;;;;2284283;55;3737;-87
2023/07/08 12:39:59;1500922.00;5.00;2644.86;36609.00;0.12;64.02;;;;;33.90;1.00;;;;;;2325138;40;3500;-88
2023/07/08 12:42:28;194876.00;0.65;337.10;0.00;0.00;0.62;;;;;34.00;1.00;;;;;;2275807;61;1130;-89
2023/07/08 12:44:56;195983.00;0.65;339.01;0.00;0.00;0.62;;;;;34.00;1.00;;;;;;2275741;61;987;-88
2023/07/08 12:47:24;172507.00;0.58;298.58;13493.00;0.04;24.00;;;;;33.90;1.00;;;;;;2276273;61;1385;-89
2023/07/08 12:49:53;358449.00;1.19;618.38;5016.00;0.02;9.31;;;;;33.90;1.00;;;;;;2276279;61;1677;-88
2023/07/08 12:52:23;734414.00;2.45;1266.97;65269.00;0.22;113.58;;;;;33.80;1.00;;;;;;2368494;40;3720;-88
2023/07/08 12:54:50;570297.00;1.90;982.96;77771.00;0.26;135.19;;;;;34.00;1.00;;;;;;2360694;40;3579;-89
2023/07/08 12:57:22;638925.00;2.13;1101.48;11437.00;0.04;20.44;;;;;34.50;1.00;;;;;;2276258;61;1825;-89
2023/07/08 12:59:56;412538.00;1.38;711.36;32097.00;0.11;56.21;;;;;34.60;1.00;;;;;;2283848;56;3771;-88
2023/07/08 13:02:30;404931.00;1.35;698.28;2141.00;0.01;4.33;;;;;34.30;1.00;;;;;;2306283;39;3753;-88
2023/07/08 13:07:40;1387138.00;4.62;2432.49;56599.00;0.19;98.60;;;;;33.90;1.00;;;;;;2281687;61;1400;-88
2023/07/08 13:10:19;290902.00;0.97;502.28;0.00;0.00;0.62;;;;;34.10;1.00;;;;;;2288454;55;3701;-88
2023/07/08 13:12:53;301183.00;1.00;519.95;0.00;0.00;0.62;;;;;34.40;1.00;;;;;;2293437;39;3416;-88
2023/07/08 13:15:26;641805.00;2.14;1106.46;89152.00;0.30;154.84;;;;;34.40;1.00;;;;;;2331201;40;3543;-87
2023/07/08 13:17:54;286305.00;0.95;494.38;0.00;0.00;0.62;;;;;34.60;1.00;;;;;;2276014;61;1523;-88
2023/07/08 13:20:23;536974.00;1.79;925.51;54929.00;0.18;95.71;;;;;35.00;1.00;;;;;;2275997;61;1659;-88
2023/07/08 13:23:00;595433.00;1.98;1026.33;118447.00;0.39;205.40;;;;;35.10;1.00;;;;;;2292084;55;3674;-87
2023/07/08 13:25:30;221030.00;0.74;382.12;7609.00;0.03;13.81;;;;;35.10;1.00;;;;;;2276916;61;982;-88
2023/07/08 13:28:01;250720.00;0.84;433.19;0.00;0.00;0.62;;;;;34.90;1.00;;;;;;2276272;61;1282;-89
2023/07/08 13:30:31;296783.00;0.99;512.39;0.00;0.00;0.62;;;;;35.00;1.00;;;;;;2276329;61;1473;-89
2023/07/08 13:33:00;87017.00;0.29;151.16;0.00;0.00;0.62;;;;;35.00;1.00;;;;;;2276123;61;2003;-88
2023/07/08 13:35:37;59452.00;0.20;103.53;0.00;0.00;0.62;;;;;35.10;1.00;;;;;;2276218;61;1699;-87
2023/07/08 13:38:05;296462.00;0.99;511.84;0.00;0.00;0.62;;;;;34.90;1.00;;;;;;2276215;61;1567;-88
2023/07/08 13:40:33;266083.00;0.89;459.61;6804.00;0.02;12.41;;;;;35.10;1.00;;;;;;2276259;61;1174;-88
2023/07/08 13:43:03;652415.00;2.17;1124.81;168696.00;0.56;292.02;;;;;34.90;1.00;;;;;;2309736;55;3785;-88
2023/07/08 13:45:37;286657.00;0.96;494.98;0.00;0.00;0.62;;;;;34.90;1.00;;;;;;2298381;55;3746;-87
2023/07/08 13:48:14;226954.00;0.76;392.31;0.00;0.00;0.62;;;;;35.40;1.00;;;;;;2276092;61;1518;-88
2023/07/08 13:50:49;235595.00;0.79;407.17;0.00;0.00;0.62;;;;;35.70;1.00;;;;;;2276054;61;1749;-88
2023/07/08 13:53:19;279114.00;0.93;482.01;74928.00;0.25;130.28;;;;;35.90;1.00;;;;;;2276038;61;1938;-87
2023/07/08 13:58:22;924056.00;3.08;1598.41;1900.00;0.01;3.91;;;;;35.70;1.00;;;;;;2280959;61;1326;-86
2023/07/08 14:00:55;291347.00;0.97;503.05;241.00;0.00;1.04;;;;;35.20;1.00;;;;;;2279354;61;1556;-89
2023/07/08 14:03:23;283014.00;0.94;488.72;0.00;0.00;0.62;;;;;35.40;1.00;;;;;;2303942;55;3762;-88
2023/07/08 14:05:51;423553.00;1.41;730.30;0.00;0.00;0.62;;;;;35.20;1.00;;;;;;2275420;61;1067;-89
2023/07/08 14:08:22;266696.00;0.89;460.66;304.00;0.00;1.15;;;;;35.60;1.00;;;;;;2275301;61;1630;-87
2023/07/08 14:10:50;29964.00;0.10;52.52;0.00;0.00;0.62;;;;;35.10;1.00;;;;;;2275457;61;1125;-90
2023/07/08 14:13:19;293168.00;0.98;506.18;49289.00;0.16;85.96;;;;;35.20;1.00;;;;;;2275460;61;1997;-88
2023/07/08 14:15:46;242717.00;0.81;419.42;70825.00;0.24;123.19;;;;;35.30;1.00;;;;;;2275290;61;908;-89
2023/07/08 14:18:16;206845.00;0.69;357.71;0.00;0.00;0.62;;;;;35.30;1.00;;;;;;2277772;39;3576;-88
2023/07/08 14:20:43;96610.00;0.32;167.72;0.00;0.00;0.62;;;;;35.40;1.00;;;;;;2275476;61;1774;-89
2023/07/08 14:23:12;165316.00;0.55;286.20;0.00;0.00;0.62;;;;;35.60;1.00;;;;;;2275941;61;1083;-89
2023/07/08 14:25:40;198616.00;0.66;343.54;0.00;0.00;0.62;;;;;35.10;1.00;;;;;;2284008;55;3722;-90
2023/07/08 14:30:48;607896.00;2.03;1047.86;0.00;0.00;0.62;;;;;34.60;1.00;;;;;;2281815;61;1399;-87
2023/07/08 14:33:15;296670.00;0.99;512.20;0.00;0.00;0.62;;;;;34.90;1.00;;;;;;2280154;61;2002;-87
2023/07/08 14:35:42;157431.00;0.52;272.61;0.00;0.00;0.62;;;;;35.20;1.00;;;;;;2279932;61;976;-88
2023/07/08 14:38:12;0.00;0.00;0.62;0.00;0.00;0.62;;;;;35.10;1.00;;;;;;2280073;61;1295;-88
2023/07/08 14:40:41;0.00;0.00;0.62;0.00;0.00;0.62;;;;;35.30;1.00;;;;;;2280005;61;1880;-87
2023/07/08 14:43:17;0.00;0.00;0.62;0.00;0.00;0.62;;;;;35.10;1.00;;;;;;2280214;61;1027;-85
2023/07/08 14:45:49;163148.00;0.54;282.46;0.00;0.00;0.62;;;;;35.10;1.00;;;;;;2280118;61;1128;-89
2023/07/08 14:48:16;236.00;0.00;1.03;0.00;0.00;0.62;;;;;34.80;1.00;;;;;;2280087;61;1606;-89
2023/07/08 14:50:44;237.00;0.00;1.03;0.00;0.00;0.62;;;;;34.40;1.00;;;;;;2280030;61;1063;-88
2023/07/08 14:53:11;99262.00;0.33;172.30;0.00;0.00;0.62;;;;;34.50;1.00;;;;;;2280062;61;1994;-88
2023/07/08 14:55:40;8179.00;0.03;14.79;0.00;0.00;0.62;;;;;34.80;1.00;;;;;;2280011;61;1035;-89
2023/07/08 14:58:07;186848.00;0.62;323.28;0.00;0.00;0.62;;;;;35.10;1.00;;;;;;2280057;61;1371;-90
2023/07/08 15:00:34;374632.00;1.25;646.20;46880.00;0.16;81.79;;;;;34.90;1.00;;;;;;2279913;61;944;-89
2023/07/08 15:03:04;51410.00;0.17;89.62;0.00;0.00;0.62;;;;;34.70;1.00;;;;;;2280096;61;1505;-89
2023/07/08 15:05:31;153569.00;0.51;265.96;0.00;0.00;0.62;;;;;34.40;1.00;;;;;;2280075;61;2305;-88
2023/07/08 15:07:59;998236.00;3.33;1729.35;0.00;0.00;0.62;;;;;34.50;1.00;;;;;;2292810;56;3759;-87
2023/07/08 15:10:29;117829144.00;392.76;66266036.00;0.00;0.00;0.62;;;;;34.50;1.00;;;;;;2276057;61;1137;-89
2023/07/08 15:12:57;239340.00;0.80;413.62;296.00;0.00;1.13;;;;;34.70;1.00;;;;;;2275857;61;2008;-90
2023/07/08 15:15:29;288423.00;0.96;498.02;4964.00;0.02;9.22;;;;;34.90;1.00;;;;;;2275785;61;1625;-88
2023/07/08 15:20:27;901034.00;3.00;1557.94;0.00;0.00;0.62;;;;;35.00;1.00;;;;;;2284394;39;3558;-87
2023/07/08 15:22:55;218370.00;0.73;377.54;0.00;0.00;0.62;;;;;34.80;1.00;;;;;;2275978;61;1700;-88
2023/07/08 15:25:22;148874.00;0.50;257.87;0.00;0.00;0.62;;;;;34.80;1.00;;;;;;2275876;61;1644;-89
2023/07/08 15:27:54;270676.00;0.90;467.51;0.00;0.00;0.62;;;;;34.80;1.00;;;;;;2275885;61;1441;-89
2023/07/08 15:30:23;179247.00;0.60;310.19;0.00;0.00;0.62;;;;;34.90;1.00;;;;;;2275979;61;1029;-87
2023/07/08 15:32:51;143607.00;0.48;248.79;0.00;0.00;0.62;;;;;35.00;1.00;;;;;;2275947;61;1996;-86
2023/07/08 15:35:21;171660.00;0.57;297.13;0.00;0.00;0.62;;;;;35.00;1.00;;;;;;2310278;39;3577;-87
2023/07/08 15:40:25;1400147.00;4.67;2456.60;0.00;0.00;0.62;;;;;34.80;1.00;;;;;;2289520;55;3604;-88
2023/07/08 15:42:56;280398.00;0.93;484.22;0.00;0.00;0.62;;;;;34.10;1.00;;;;;;2297890;40;3650;-88
2023/07/08 15:52:59;201757.00;0.67;348.95;0.00;0.00;0.62;;;;;35.10;1.00;;;;;;2403459;55;2211;-89
2023/07/08 15:55:32;235031.00;0.78;406.20;66724.00;0.22;116.10;;;;;34.50;1.00;;;;;;2275827;61;1702;-88
2023/07/08 15:58:07;412896.00;1.38;711.98;0.00;0.00;0.62;;;;;34.50;1.00;;;;;;2374889;40;3708;-88
2023/07/08 16:03:23;1426752.00;4.76;2506.03;0.00;0.00;0.62;;;;;34.70;1.00;;;;;;2281489;55;3668;-88
2023/07/08 16:08:24;1968085.00;6.56;3559.00;169144.00;0.56;292.79;;;;;34.50;1.00;;;;;;2328106;39;3605;-88
2023/07/08 16:16:05;1663682.00;5.55;2955.07;0.00;0.00;0.62;;;;;34.70;1.00;;;;;;2273380;61;1251;-88
2023/07/08 16:18:32;287579.00;0.96;496.57;0.00;0.00;0.62;;;;;34.60;1.00;;;;;;2271908;61;1541;-88
2023/07/08 16:23:28;1664559.00;5.55;2956.77;111003.00;0.37;192.56;;;;;34.80;1.00;;;;;;2282552;39;3492;-88
2023/07/08 16:25:57;492658.00;1.64;849.18;153063.00;0.51;265.09;;;;;34.90;1.00;;;;;;2276565;61;1414;-88
2023/07/08 16:33:26;1369578.00;4.57;2400.02;0.00;0.00;0.62;;;;;34.40;1.00;;;;;;2282010;61;1972;-88
2023/07/08 16:35:55;510955.00;1.70;880.69;60325.00;0.20;105.04;;;;;34.70;1.00;;;;;;2289995;40;3616;-87
2023/07/08 16:38:23;359099.00;1.20;619.50;0.00;0.00;0.62;;;;;34.80;1.00;;;;;;2338776;40;3585;-86
2023/07/08 16:40:52;933758.00;3.11;1615.49;46300.00;0.15;80.79;;;;;34.90;1.00;;;;;;2288875;40;3584;-87
2023/07/08 16:45:57;172671.00;0.58;298.87;0.00;0.00;0.62;;;;;34.80;1.00;;;;;;2449178;39;2107;-87
2023/07/08 16:56:02;1733507.00;5.78;3090.72;17664.00;0.06;31.22;;;;;34.50;1.00;;;;;;1973436;56;3547;-89
2023/07/08 16:58:30;89207.00;0.30;154.94;0.00;0.00;0.62;;;;;34.60;1.00;;;;;;2287162;39;3620;-86
2023/07/08 17:01:05;211230.00;0.70;365.25;61195.00;0.20;106.54;;;;;34.40;1.00;;;;;;2277317;61;1652;-88
2023/07/08 17:03:34;301856.00;1.01;521.11;40669.00;0.14;71.05;;;;;34.30;1.00;;;;;;2383305;39;3752;-88
2023/07/08 17:06:02;706876.00;2.36;1219.16;0.00;0.00;0.62;;;;;34.30;1.00;;;;;;2277200;61;1514;-88
2023/07/08 17:08:30;270702.00;0.90;467.55;0.00;0.00;0.62;;;;;34.30;1.00;;;;;;2277272;61;1718;-90
2023/07/08 17:10:58;785361.00;2.62;1355.61;0.00;0.00;0.62;;;;;34.50;1.00;;;;;;2352450;40;3747;-88
2023/07/08 17:13:29;454652.00;1.52;783.78;69497.00;0.23;120.89;;;;;34.40;1.00;;;;;;2346656;56;4270;-90
2023/07/08 17:21:03;1342702.00;4.48;2350.47;0.00;0.00;0.62;;;;;34.90;1.00;;;;;;2360285;39;3624;-88
2023/07/08 17:23:30;337504.00;1.13;582.38;0.00;0.00;0.62;;;;;34.90;1.00;;;;;;2276149;61;1586;-89
2023/07/08 17:41:17;1358996.00;4.53;2380.49;0.00;0.00;0.62;;;;;34.80;1.00;;;;;;1976724;39;3577;-89
2023/07/08 17:43:46;379068.00;1.26;653.82;0.00;0.00;0.62;;;;;34.90;1.00;;;;;;2296164;55;3777;-89
2023/07/08 17:46:15;156924.00;0.52;271.74;0.00;0.00;0.62;;;;;34.90;1.00;;;;;;2276295;61;1618;-88
2023/07/08 17:51:17;1774013.00;5.91;3170.15;0.00;0.00;0.62;;;;;34.60;1.00;;;;;;2286518;40;3490;-88
2023/07/08 17:53:45;304799.00;1.02;526.17;0.00;0.00;0.62;;;;;34.50;1.00;;;;;;2283369;55;3592;-88
2023/07/08 17:56:21;617132.00;2.06;1063.81;0.00;0.00;0.62;;;;;34.30;1.00;;;;;;2293470;56;3662;-87
2023/07/08 17:58:51;120562.00;0.40;209.05;0.00;0.00;0.62;;;;;34.30;1.00;;;;;;2283741;56;3840;-88
2023/07/08 18:01:19;255107.00;0.85;440.73;71510.00;0.24;124.37;;;;;34.30;1.00;;;;;;2280173;61;912;-87
2023/07/08 18:03:46;272253.00;0.91;470.22;18349.00;0.06;32.41;;;;;34.10;1.00;;;;;;2307086;40;3578;-88
2023/07/08 18:06:13;1029412.00;3.43;1784.63;63769.00;0.21;110.99;;;;;34.10;1.00;;;;;;2279937;60;1665;-88
2023/07/08 18:08:40;245231.00;0.82;423.75;39266.00;0.13;68.62;;;;;33.90;1.00;;;;;;2280386;60;1358;-87
2023/07/08 18:13:39;1665388.00;5.55;2958.37;33561.00;0.11;58.75;;;;;33.70;1.00;;;;;;2285054;40;3362;-88
2023/07/08 18:16:12;569504.00;1.90;981.59;20676.00;0.07;36.44;;;;;33.60;1.00;;;;;;2280718;55;3766;-89
2023/07/08 18:18:39;385475.00;1.28;664.84;65807.00;0.22;114.51;;;;;33.70;1.00;;;;;;2335397;40;3608;-87
2023/07/08 18:21:15;627645.00;2.09;1081.98;0.00;0.00;0.62;;;;;33.30;1.00;;;;;;2372618;40;3732;-88
2023/07/08 18:23:43;780167.00;2.60;1346.56;0.00;0.00;0.62;;;;;33.30;1.00;;;;;;2331090;40;3740;-87
2023/07/08 18:26:18;239972.00;0.80;414.70;0.00;0.00;0.62;;;;;33.30;1.00;;;;;;2325381;40;3878;-86
2023/07/08 18:28:47;499150.00;1.66;860.36;31705.00;0.11;55.53;;;;;33.30;1.00;;;;;;2325109;40;3598;-87
2023/07/08 18:38:47;1655889.00;5.52;2940.03;27670.00;0.09;48.55;;;;;33.10;1.00;;;;;;2317484;40;3433;-88
2023/07/08 18:43:54;1527193.00;5.09;2694.39;57548.00;0.19;100.24;;;;;33.10;1.00;;;;;;2381987;40;3478;-88
2023/07/08 18:46:22;791893.00;2.64;1366.99;22597.00;0.08;39.77;;;;;33.10;1.00;;;;;;2347403;55;3767;-87
2023/07/08 18:48:51;357013.00;1.19;615.91;2233.00;0.01;4.49;;;;;33.10;1.00;;;;;;2311975;39;3633;-88
2023/07/08 18:51:24;242201.00;0.81;418.54;79651.00;0.27;138.43;;;;;32.90;1.00;;;;;;2321355;39;3590;-87
2023/07/08 18:53:53;392185.00;1.31;676.37;29154.00;0.10;51.12;;;;;32.70;1.00;;;;;;2299738;40;3728;-87
2023/07/08 18:59:15;1417657.00;4.73;2489.11;0.00;0.00;0.62;;;;;32.50;1.00;;;;;;2278245;61;1351;-87
2023/07/08 19:01:45;433614.00;1.45;747.60;23273.00;0.08;40.94;;;;;32.40;1.00;;;;;;2388643;40;3606;-88
2023/07/08 19:09:25;1560125.00;5.20;2756.77;0.00;0.00;0.62;;;;;32.40;1.00;;;;;;2288991;40;3519;-88
2023/07/08 19:11:55;711660.00;2.37;1227.46;55671.00;0.19;96.99;;;;;32.20;1.00;;;;;;2299043;40;3695;-88
2023/07/08 19:17:02;485228.00;1.62;836.40;56263.00;0.19;98.02;;;;;32.20;1.00;;;;;;2402000;41;2157;-87
2023/07/08 19:24:28;2253985.00;7.51;4159.55;55113.00;0.18;96.03;;;;;31.70;1.00;;;;;;2293289;56;3566;-88
2023/07/08 19:26:56;943522.00;3.15;1632.69;120736.00;0.40;209.35;;;;;31.70;1.00;;;;;;2291732;40;3618;-91
2023/07/08 19:34:33;1832013.00;6.11;3284.90;110137.00;0.37;191.07;;;;;31.50;1.00;;;;;;2346540;40;3397;-89
2023/07/08 19:37:01;1838811.00;6.13;3298.43;67005.00;0.22;116.58;;;;;31.40;1.00;;;;;;2283923;40;3704;-89
2023/07/08 19:39:32;411992.00;1.37;710.42;59252.00;0.20;103.18;;;;;31.30;1.00;;;;;;2272488;61;1175;-89